Sarcobatus Flat, Nevada Weather observations

Data are for observation ending at time listed.
 Day   Time    Ave.   Ave.  Ave.  Vector   Max.   Stn.    Total    Solar   Ave.  
  of    of     Air    Rel.  Wind   Wind    Wind   Baro.  Precip.   Rad.    Soil  
Year   Day     Temp.  Hum.  Speed  Dir.    Gust   Pres.                    Temp. 
2015   (PST)    F      %     mph   deg.    mph     mb.     in.     W/m2     F   
------------------------------------------------------------------------------
  61    3:20   35.0    93    3.4   334      4.7   872.2    0.00       0    999.0
  61    3:30   34.7    94    3.4   337      4.6   872.1    0.01       0    999.0
  61    3:40   34.5    94    3.1     0      4.5   871.9    0.01       0    999.0
  61    3:50   34.5    94    2.0    19      3.8   871.8    0.01       0    999.0
  61    4:00   34.5    95    0.6     8      2.9   871.7    0.00       0    999.0
  61    4:10   34.6    95    3.2   234      4.6   871.7    0.00       0    999.0
  61    4:20   34.8    95    5.2   227      6.4   871.8    0.00       0    999.0
  61    4:30   35.0    95    3.5   236      5.0   871.7    0.00       0    999.0
  61    4:40   35.0    95    2.5   251      4.0   871.6    0.00       0    999.0
  61    4:50   35.1    95    0.8   277      2.0   871.6    0.00       0    999.0
  61    5:00   35.1    95    0.3   316      2.7   871.5    0.00       0    999.0
  61    5:10   35.2    95    1.7   345      2.8   871.4    0.00       0    999.0
  61    5:20   35.1    95    0.9   353      1.8   871.3    0.00       0    999.0
  61    5:30   35.3    95    0.0     0      0.0   871.2    0.00       0    999.0
  61    5:40   35.3    95    1.7   253      3.7   871.3    0.00       0    999.0
  61    5:50   35.3    95    3.4   247      4.4   871.4    0.00       0    999.0
  61    6:00   35.5    95    3.5   232      4.3   871.4    0.00       0    999.0
  61    6:10   35.5    95    3.3   212      4.6   871.3    0.00       0    999.0
  61    6:20   35.4    95    2.4   163      3.4   871.3    0.00       1    999.0
  61    6:30   35.2    96    1.2   159      2.3   871.4    0.00       3    999.0
  61    6:40   35.3    96    2.3   193      2.9   871.5    0.00       4    999.0
  61    6:50   35.4    96    2.3   179      3.5   871.5    0.00      17    999.0
  61    7:00   35.4    96    2.3   152      3.1   871.5    0.00      22    999.0
  61    7:10   35.5    96    1.4   148      2.2   871.5    0.00      35    999.0
  61    7:20   35.7    96    0.1   148      0.8   871.4    0.00      39    999.0
  61    7:30   36.0    96    0.1   148      0.5   871.5    0.00      39    999.0
  61    7:40   36.2    95    0.0   148      0.6   871.6    0.00      49    999.0
  61    7:50   36.5    95    0.0   148      0.5   871.6    0.00      63    999.0
  61    8:00   36.8    94    0.0     0      0.0   871.5    0.00      83    999.0
  61    8:10   37.0    93    0.0   148      0.5   871.5    0.00     154    999.0
  61    8:20   37.3    92    0.6   148      1.5   871.5    0.00     142    999.0
  61    8:30   37.7    90    1.4    68      3.1   871.5    0.00     129    999.0
  61    8:40   37.7    89    1.4    10      2.9   871.5    0.01     112    999.0
  61    8:50   38.0    89    1.5   347      3.1   871.4    0.00      95    999.0
  61    9:00   38.1    89    2.2   324      4.5   871.4    0.00     139    999.0
  61    9:10   38.7    88    1.4   335      3.8   871.4    0.00     252    999.0
  61    9:20   39.9    87    1.5    33      3.1   871.3    0.00     514    999.0
  61    9:30   41.8    82    1.2   161      2.4   871.3    0.00     449    999.0
  61    9:40   41.1    83    1.5   215      4.5   871.3    0.00     206    999.0
  61    9:50   40.5    84    3.8   320      6.9   871.3    0.00     245    999.0
  61   10:00   40.2    84    3.1   338      5.0   871.2    0.00     280    999.0
  61   10:10   41.0    82    1.7   347      3.8   871.3    0.00     354    999.0
  61   10:20   41.3    80    2.1   293      4.8   871.3    0.00     277    999.0
  61   10:30   41.8    78    0.6   128      1.9   871.2    0.00     353    999.0
  61   10:40   42.2    75    1.3   344      3.7   871.2    0.00     310    999.0
  61   10:50   42.5    75    1.4    53      3.8   871.1    0.00     266    999.0
  61   11:00   42.5    77    1.4    44      3.6   871.1    0.00     323    999.0
  61   11:10   43.2    74    3.3    72      6.1   871.0    0.00     514    999.0
  61   11:20   44.6    67    1.9   100      5.0   870.9    0.00     876    999.0
  61   11:30   45.1    68    3.5   151     10.7   870.9    0.00     894    999.0
  61   11:40   44.7    70    4.0   263      9.6   870.8    0.00     403    999.0
  61   11:50   45.3    69    2.8   249      7.7   870.8    0.00     352    999.0
  61   12:00   45.2    65    5.6   247     11.2   870.8    0.00     244    999.0
  61   12:10   44.8    67    9.7   274     16.5   870.7    0.00     178    999.0
  61   12:20   40.7    75   15.8   286     20.9   870.7    0.00      46    999.0
  61   12:30   38.2    82   10.4   285     21.1   870.9    0.00      35    999.0
  61   12:40   37.8    81    6.8   267      9.8   870.8    0.01      52    999.0
  61   12:50   37.9    78    3.3   191      4.7   870.6    0.01      48    999.0
  61   13:00   38.8    75    1.8    90      5.1   870.6    0.00      78    999.0
  61   13:10   39.2    79    5.2    77      8.4   870.7    0.00     101    999.0
  61   13:20   39.2    80    6.2   135      8.4   870.7    0.00     101    999.0
  61   13:30   38.5    82    4.5   168      6.0   870.9    0.00      88    999.0
  61   13:40   38.9    78    6.3   137      9.3   870.9    0.00      76    999.0
  61   13:50   39.8    75    7.8   132     10.9   870.9    0.00     144    999.0
  61   14:00   40.2    75    7.0   143      9.1   871.0    0.00     113    999.0
  61   14:10   40.2    74    8.0   126     10.5   871.0    0.00     109    999.0
  61   14:20   40.9    74    8.1   123     10.1   870.9    0.00     147    999.0
  61   14:30   41.6    71    7.8   169     11.0   871.0    0.00     237    999.0
  61   14:40   42.4    69   10.5   171     13.3   870.9    0.00     486    999.0
  61   14:50   43.7    65    9.0   167     11.1   871.0    0.00     360    999.0
  61   15:00   42.3    69   10.3   164     12.6   871.2    0.00      82    999.0
  61   15:10   41.9    70    8.7   155     10.7   871.3    0.00     116    999.0
  61   15:20   42.6    68    8.1   170     10.7   871.4    0.00     331    999.0
  61   15:30   42.7    69    8.7   185     12.1   871.5    0.00     140    999.0
  61   15:40   41.5    75    9.4   195     12.2   871.6    0.00     136    999.0
  61   15:50   41.5    75    7.6   167      9.6   871.7    0.00      93    999.0
  61   16:00   41.7    73    7.8   161     10.4   871.6    0.00      72    999.0
  61   16:10   41.8    71    7.9   165      9.5   871.6    0.00      88    999.0
  61   16:20   42.1    70    6.6   167      8.7   871.7    0.00     100    999.0
  61   16:30   42.3    69    5.5   155      7.5   871.7    0.00     120    999.0
  61   16:40   42.2    68    5.2   146      7.2   871.7    0.00      64    999.0
  61   16:50   42.0    69    3.7   151      5.0   871.8    0.00      35    999.0
  61   17:00   41.8    71    4.9   134      6.9   871.9    0.00      24    999.0
  61   17:10   41.4    74    4.8   137      6.3   872.0    0.00      24    999.0
  61   17:20   41.6    73    4.3   166      8.3   872.2    0.00      74    999.0
  61   17:30   41.6    72    4.5   164      6.9   872.4    0.00      24    999.0
  61   17:40   40.5    74    5.2   150      6.4   872.4    0.00       9    999.0
  61   17:50   39.5    78    4.8   129      5.7   872.5    0.00       4    999.0
  61   18:00   38.8    80    3.4    99      5.3   872.6    0.00       1    999.0
  61   18:10   38.1    82    2.3   165      4.1   872.8    0.00       0    999.0
  61   18:20   38.0    82    3.8   185      5.3   872.9    0.00       0    999.0
  61   18:30   37.9    81    3.1   128      3.9   873.0    0.00       0    999.0
  61   18:40   37.7    80    2.6   122      3.4   873.0    0.00       0    999.0
  61   18:50   37.1    81    2.8    72      4.2   873.1    0.00       0    999.0
  61   19:00   36.3    84    4.1    82      7.7   873.2    0.00       0    999.0
  61   19:10   37.1    84    6.9   109      8.3   873.4    0.00       0    999.0
  61   19:20   37.5    81    5.2   115      7.5   873.6    0.00       0    999.0
  61   19:30   37.6    80    2.8   104      5.8   873.8    0.00       0    999.0
  61   19:40   37.4    80    0.3   133      3.4   874.0    0.00       0    999.0
  61   19:50   36.7    81    1.2   180      2.9   874.1    0.00       0    999.0
  61   20:00   36.8    81    2.1   150      2.8   874.3    0.00       0    999.0
  61   20:10   36.3    82    2.5   153      3.8   874.5    0.00       0    999.0
  61   20:20   36.4    82    2.3   153      3.7   874.7    0.00       0    999.0
  61   20:30   36.9    80    0.7   139      2.4   874.8    0.00       0    999.0
  61   20:40   37.1    79    1.9   127      4.1   874.9    0.00       0    999.0
  61   20:50   36.8    79    3.6   128      5.6   875.0    0.00       0    999.0
  61   21:00   36.3    81    5.0   124      6.4   875.1    0.00       0    999.0
  61   21:10   36.4    81    4.4   134      5.7   875.1    0.00       0    999.0
  61   21:20   36.8    80    3.3   151      4.8   875.2    0.00       0    999.0
  61   21:30   36.8    80    2.6   139      5.2   875.3    0.00       0    999.0
  61   21:40   36.0    82    2.2   334      6.1   875.5    0.00       0    999.0
  61   21:50   33.6    88    4.9   324      7.9   875.5    0.00       0    999.0
  61   22:00   33.0    90    4.2   298      5.7   875.5    0.00       0    999.0
  61   22:10   32.7    91    3.8   308      5.6   875.5    0.00       0    999.0
  61   22:20   32.4    92    3.9   328      5.1   875.6    0.00       0    999.0
  61   22:30   32.0    92    3.3   354      4.5   875.6    0.00       0    999.0
  61   22:40   31.9    93    3.6     5      5.4   875.7    0.00       0    999.0
  61   22:50   32.2    93    3.6     8      5.2   875.8    0.00       0    999.0
  61   23:00   32.5    92    2.8   359      4.2   875.7    0.00       0    999.0
  61   23:10   32.3    91    1.8   317      2.9   875.8    0.00       0    999.0
  61   23:20   32.2    92    2.7   318      4.7   875.9    0.00       0    999.0
  61   23:30   32.4    91    2.9   330      4.1   876.0    0.00       0    999.0
  61   23:40   32.2    92    4.4   314      6.2   876.1    0.00       0    999.0
  61   23:50   32.6    93    3.2   324      4.8   876.1    0.00       0    999.0
  62    0:00   33.0    92    3.7   326      5.3   876.0    0.00       0    999.0
  62    0:10   32.9    92    3.8   342      5.6   876.0    0.00       0    999.0
  62    0:20   33.5    92    7.0   337      9.5   876.1    0.00       0    999.0
  62    0:30   34.7    90    4.1   348      7.5   876.1    0.00       0    999.0
  62    0:40   35.0    88    3.1   344      5.3   876.1    0.00       0    999.0
  62    0:50   35.0    88    1.8    29      2.5   876.0    0.00       0    999.0
  62    1:00   34.7    88    3.3   345      4.7   876.0    0.00       0    999.0
  62    1:10   33.8    90    4.6   339      5.2   875.9    0.00       0    999.0
  62    1:20   33.2    91    3.7   337      4.9   875.9    0.00       0    999.0
  62    1:30   32.9    92    2.6   338      3.6   875.9    0.00       0    999.0
  62    1:40   32.0    93    3.3   336      4.2   875.8    0.00       0    999.0
  62    1:50   31.4    94    1.3   302      3.3   875.8    0.00       0    999.0
  62    2:00   31.3    94    2.2   302      3.8   875.7    0.00       0    999.0
  62    2:10   31.0    94    0.9    44      2.4   875.6    0.00       0    999.0
  62    2:20   31.3    95    1.1    55      2.3   875.5    0.00       0    999.0
  62    2:30   31.2    95    0.5    32      3.1   875.5    0.00       0    999.0
  62    2:40   30.7    95    1.3   272      3.3   875.5    0.00       0    999.0
  62    2:50   30.6    95    2.3   266      3.5   875.5    0.00       0    999.0
  62    3:00   30.8    95    1.2   285      2.3   875.6    0.00       0    999.0
  62    3:10   30.1    95    2.1    58      4.2   875.6    0.00       0    999.0

Return to Sarcobatus Flat, Nevada graphs page.


Western Regional Climate Center,wrcc@dri.edu